Thursday, June 29, 2017, 4:05 AM CDT
Back to Local

KBTR, Baton Rouge Metro Ryan Field

Location: Baton Rouge, LA, United States Lat: 30.533
Local Time: 4:05 AM CDT ( 9:05 GMT) Lon: -91.15
Time Zone: US/Central Elev: 68 ft

Show me the last for .
Show Decoded

2017-06-29 03:53 METAR KBTR 290853Z AUTO 10006KT 10SM SCT055 SCT070 BKN085 23/22 A2994 RMK AO2
                 SLP139 T02280222 58010 $ =
2017-06-29 02:53 METAR KBTR 290753Z AUTO 00000KT 10SM FEW017 SCT036 BKN065 23/22 A2996 RMK AO2
                 SLP143 T02280222 =
2017-06-29 01:53 METAR KBTR 290653Z AUTO 11004KT 10SM FEW018 SCT029 OVC060 23/22 A2997 RMK AO2
                 SLP146 T02330222 =
2017-06-29 00:53 METAR KBTR 290553Z AUTO 14009KT 10SM FEW012 SCT044 23/22 A2997 RMK AO2 SLP149
                 P0002 60005 T02330222 10256 20233 402890217 55000 =
2017-06-29 00:46 METAR KBTR 290546Z AUTO 13008KT 10SM SCT012 23/22 A2998 RMK AO2 P0002 T02330222
                 =
2017-06-29 00:20 METAR KBTR 290520Z AUTO 13009KT 10SM BKN014 BKN060 OVC075 23/22 A2997 RMK AO2
                 P0002 T02330222 =
2017-06-29 00:03 METAR KBTR 290503Z AUTO 10007KT 5SM BR FEW009 SCT024 OVC075 23/23 A2997 RMK AO2
                 P0002 T02330228 =
2017-06-28 23:52 METAR KBTR 290452Z AUTO 10008KT 4SM BR FEW009 BKN023 BKN036 23/23 A2997 RMK AO2
                 SLP148 P0001 T02330228 =
2017-06-28 23:51 METAR KBTR 290451Z AUTO 11008KT 5SM BR FEW009 SCT023 BKN029 23/23 A2997 RMK AO2
                 P0001 =
2017-06-28 22:53 METAR KBTR 290353Z 10007KT 10SM FEW070 SCT085 SCT110 23/23 A2997 RMK AO2 SLP147
                 P0001 T02330228 =
2017-06-28 21:53 METAR KBTR 290253Z 09005KT 10SM SCT031 23/23 A2997 RMK AO2 RAB07E53 SLP149 P0001
                 60001 T02330228 53006 =
2017-06-28 20:53 METAR KBTR 290153Z 08004KT 10SM FEW039 SCT055 OVC070 24/22 A2997 RMK AO2 SLP146
                 T02390222 =
2017-06-28 19:53 METAR KBTR 290053Z 13004KT 10SM OVC060 25/21 A2996 RMK AO2 SLP146 T02500211 =
2017-06-28 18:53 METAR KBTR 282353Z 16007KT 10SM SCT050 OVC060 25/22 A2996 RMK AO2 RAB43E53
                 SLP143 P0000 60000 T02500217 10289 20244 55003 =
2017-06-28 17:53 METAR KBTR 282253Z 18006KT 10SM CLR 26/22 A2996 RMK AO2 SLP143 T02560217 =
2017-06-28 16:53 METAR KBTR 282153Z 16009KT 10SM FEW026 FEW070 SCT080 26/22 A2995 RMK AO2
                 RAB09E27 SLP142 P0000 T02560222 =
2017-06-28 15:53 METAR KBTR 282053Z 13006KT 10SM BKN039 28/21 A2996 RMK AO2 SLP146 T02830211
                 58011 =
2017-06-28 14:53 METAR KBTR 281953Z COR 15011KT 10SM FEW030 28/20 A2997 RMK AO2 SLP149 T02830200
                 =
2017-06-28 13:53 METAR KBTR 281853Z 11012KT 10SM BKN025 28/23 A2999 RMK AO2 SLP154 T02830228 =
2017-06-28 12:53 METAR KBTR 281753Z 11004KT 10SM BKN025 28/22 A3000 RMK AO2 LTG DSNT N SLP157
                 T02780222 10289 20217 58000 =
2017-06-28 12:40 METAR KBTR 281740Z 06004KT 10SM BKN025 28/22 A3000 =
2017-06-28 12:14 METAR KBTR 281714Z 07006KT 10SM VCTS BKN025 26/21 A3000 RMK AO2 LTG DSNT NE
                 T02610211 =
2017-06-28 11:53 METAR KBTR 281653Z 08008KT 10SM BKN024 BKN030CB 27/21 A3001 RMK AO2 LTG DSNT NE
                 TSB38E53 SLP160 T02670206 =
2017-06-28 11:44 METAR KBTR 281644Z 08010KT 10SM TS BKN024 BKN030CB 27/21 A3001 RMK AO2 LTG DSNT
                 NE TSB38 T02670206 =
2017-06-28 11:05 METAR KBTR 281605Z 12008KT 10SM VCTS BKN020 BKN036 29/22 A3000 =
2017-06-28 10:53 METAR KBTR 281553Z 10009KT 10SM BKN020 BKN035 28/22 A3000 RMK AO2 LTG DSNT SE
                 SLP158 T02830222 =
2017-06-28 09:53 METAR KBTR 281453Z 14011KT 10SM SCT021 28/23 A3000 RMK AO2 SLP157 T02830228
                 50006 =
2017-06-28 08:53 METAR KBTR 281353Z 10005KT 10SM BKN120 26/23 A3000 RMK AO2 SLP160 T02560228 =
2017-06-28 07:53 METAR KBTR 281253Z 07004KT 10SM FEW100 SCT110 23/22 A3000 RMK AO2 SLP156
                 T02330217 =
2017-06-28 06:53 METAR KBTR 281153Z 08003KT 9SM CLR 22/21 A2998 RMK AO2 SLP151 T02170211 10228
                 20217 53001 =
2017-06-28 05:53 METAR KBTR 281053Z COR 04003KT 8SM CLR 22/21 A2997 RMK AO2 SLP148 T02170211 =
2017-06-28 04:53 METAR KBTR 280953Z AUTO 05003KT 10SM CLR 22/21 A2997 RMK AO2 SLP149 T02170211 =

Support USWX by starting your Amazon purchase here.